Time;durP1;ratioP1;P1;durP2;ratioP2;P2;SDS_P1;SDS_P2;PMS_P1;PMS_P2;Temp;Humidity;BMP_temperature;BMP_pressure;BME280_temperature;BME280_humidity;BME280_pressure;Samples;Min_cycle;Max_cycle;Signal;HPM_P1;HPM_P2
2024/02/21 00:01:07;;;;;;;;;;;;;;;-144.99;100.00;52611.16;5029183;28;19987;-71
2024/02/21 00:03:33;;;;;;;;;;;;;;;-144.99;100.00;52590.78;5035981;28;19928;-69
2024/02/21 00:05:59;;;;;;;;;;;;;;;-144.99;100.00;52615.25;5031492;28;19985;-70
2024/02/21 00:08:26;;;;;;;;;;;;;;;-144.99;100.00;52594.84;5038328;28;19928;-72
2024/02/21 00:10:52;;;;;;;;;;;;;;;-144.99;100.00;52617.28;5032188;28;20316;-71
2024/02/21 00:13:20;;;;;;;;;;;;;;;-144.99;100.00;52590.78;5029322;28;20035;-72
2024/02/21 00:15:46;;;;;;;;;;;;;;;-144.99;100.00;52570.38;5031634;28;19932;-70
2024/02/21 00:18:13;;;;;;;;;;;;;;;-144.99;100.00;52623.38;5030883;28;20027;-70
2024/02/21 00:20:39;;;;;;;;;;;;;;;-144.99;100.00;52598.94;4688908;28;10000127;-72
2024/02/21 00:23:06;;;;;;;;;;;;;;;-144.99;100.00;52603.00;5037350;28;19964;-69
2024/02/21 00:25:32;;;;;;;;;;;;;;;-144.99;100.00;52598.94;5026580;28;20492;-68
2024/02/21 00:27:59;;;;;;;;;;;;;;;-144.99;100.00;52623.38;5028947;28;19929;-72
2024/02/21 00:30:27;;;;;;;;;;;;;;;-144.99;100.00;52584.66;5041231;28;20345;-69
2024/02/21 00:32:53;;;;;;;;;;;;;;;-144.99;100.00;52607.09;5038382;28;19931;-69
2024/02/21 00:35:20;;;;;;;;;;;;;;;-144.99;100.00;52580.59;5031035;28;20460;-67
2024/02/21 00:37:46;;;;;;;;;;;;;;;-144.99;100.00;52607.09;5031627;28;20019;-68
2024/02/21 00:40:16;;;;;;;;;;;;;;;-144.99;100.00;52627.47;5031248;28;20123;-68
2024/02/21 00:42:42;;;;;;;;;;;;;;;-144.99;100.00;52615.25;5035370;28;20313;-68
2024/02/21 00:45:09;;;;;;;;;;;;;;;-144.99;100.00;52590.78;5035488;28;20447;-69
2024/02/21 00:47:37;;;;;;;;;;;;;;;-144.99;100.00;52615.25;5028874;28;20027;-68
2024/02/21 00:50:04;;;;;;;;;;;;;;;-144.99;100.00;52578.53;5027356;28;20400;-68
2024/02/21 00:52:30;;;;;;;;;;;;;;;-144.99;100.00;52590.78;5037675;28;20047;-69
2024/02/21 00:54:56;;;;;;;;;;;;;;;-144.99;100.00;52594.84;5030896;28;19967;-67
2024/02/21 00:57:23;;;;;;;;;;;;;;;-144.99;100.00;52607.09;5032022;28;20007;-69
2024/02/21 00:59:50;;;;;;;;;;;;;;;-144.99;100.00;52552.03;5029526;28;20031;-69
2024/02/21 01:02:16;;;;;;;;;;;;;;;-144.99;100.00;52607.09;5035284;28;19964;-69
2024/02/21 01:04:44;;;;;;;;;;;;;;;-144.99;100.00;52627.47;5038097;28;20013;-71
2024/02/21 01:07:10;;;;;;;;;;;;;;;-144.99;100.00;52582.63;5034412;28;19929;-69
2024/02/21 01:09:37;;;;;;;;;;;;;;;-144.99;100.00;52550.00;5025913;28;20107;-73
2024/02/21 01:12:03;;;;;;;;;;;;;;;-144.99;100.00;52570.38;5035769;28;19968;-72
2024/02/21 01:14:30;;;;;;;;;;;;;;;-144.99;100.00;52582.63;5034372;28;19929;-72
2024/02/21 01:16:56;;;;;;;;;;;;;;;-144.99;100.00;52598.94;5034549;28;19924;-72
2024/02/21 01:19:23;;;;;;;;;;;;;;;-144.99;100.00;52592.81;5038471;28;20059;-70
2024/02/21 01:21:50;;;;;;;;;;;;;;;-144.99;100.00;52627.47;5034528;28;20073;-71
2024/02/21 01:24:17;;;;;;;;;;;;;;;-144.99;100.00;52611.16;5043661;28;19964;-69
2024/02/21 01:26:43;;;;;;;;;;;;;;;-144.99;100.00;52623.38;5036560;28;19981;-67
2024/02/21 01:29:10;;;;;;;;;;;;;;;-144.99;100.00;52594.84;5037449;28;19929;-71
2024/02/21 01:34:08;;;;;;;;;;;;;;;-144.99;100.00;52607.09;5062970;28;20381;-79
2024/02/21 01:36:34;;;;;;;;;;;;;;;-144.99;100.00;52586.69;5067303;28;19925;-79
2024/02/21 01:39:02;;;;;;;;;;;;;;;-144.99;100.00;52594.84;5067401;28;19953;-81
2024/02/21 01:41:30;;;;;;;;;;;;;;;-144.99;100.00;52582.63;5064390;28;19960;-76
2024/02/21 01:43:56;;;;;;;;;;;;;;;-144.99;100.00;52594.84;5054244;28;20368;-75
2024/02/21 01:46:27;;;;;;;;;;;;;;;-144.99;100.00;52611.16;5051285;28;19935;-77
2024/02/21 01:48:54;;;;;;;;;;;;;;;-144.99;100.00;52603.00;5056969;28;19932;-77
2024/02/21 01:51:20;;;;;;;;;;;;;;;-144.99;100.00;52603.00;5052040;28;20035;-76
2024/02/21 01:53:47;;;;;;;;;;;;;;;-144.99;100.00;52619.31;5054255;28;20503;-76
2024/02/21 01:56:15;;;;;;;;;;;;;;;-144.99;100.00;52586.69;5051582;28;20031;-76
2024/02/21 01:58:43;;;;;;;;;;;;;;;-144.99;100.00;52586.69;5052005;28;19925;-76
2024/02/21 02:01:10;;;;;;;;;;;;;;;-144.99;100.00;52611.16;5054223;28;20368;-76
2024/02/21 02:03:37;;;;;;;;;;;;;;;-144.99;100.00;52623.38;5053119;28;20091;-77
2024/02/21 02:06:05;;;;;;;;;;;;;;;-144.99;100.00;52592.81;5055354;28;20019;-76
2024/02/21 02:08:32;;;;;;;;;;;;;;;-144.99;100.00;52603.00;5051577;28;20434;-76
2024/02/21 02:10:59;;;;;;;;;;;;;;;-144.99;100.00;52603.00;5062874;28;19935;-80
2024/02/21 02:13:26;;;;;;;;;;;;;;;-144.99;100.00;52611.16;5051283;28;19932;-75
2024/02/21 02:15:53;;;;;;;;;;;;;;;-144.99;100.00;52617.28;5050383;28;20011;-75
2024/02/21 02:18:20;;;;;;;;;;;;;;;-144.99;100.00;52603.00;5052529;28;20819;-75
2024/02/21 02:20:47;;;;;;;;;;;;;;;-144.99;100.00;52611.16;5049885;28;20015;-78
2024/02/21 02:23:14;;;;;;;;;;;;;;;-144.99;100.00;52582.63;5054762;28;20020;-75
2024/02/21 02:25:43;;;;;;;;;;;;;;;-144.99;100.00;52607.09;5055762;28;19925;-76
2024/02/21 02:28:10;;;;;;;;;;;;;;;-144.99;100.00;52586.69;5059110;28;19936;-76
2024/02/21 02:30:37;;;;;;;;;;;;;;;-144.99;100.00;52598.94;5056684;28;19936;-74
2024/02/21 02:33:03;;;;;;;;;;;;;;;-144.99;100.00;52596.88;5049981;28;20003;-74
2024/02/21 02:35:30;;;;;;;;;;;;;;;-144.99;100.00;52635.63;5045002;28;20601;-75
2024/02/21 02:37:56;;;;;;;;;;;;;;;-144.99;100.00;52603.00;5050389;28;20354;-76
2024/02/21 02:40:23;;;;;;;;;;;;;;;-144.99;100.00;52582.63;5050483;28;20372;-76
2024/02/21 02:42:51;;;;;;;;;;;;;;;-144.99;100.00;52594.84;5053673;28;19974;-77
2024/02/21 02:45:17;;;;;;;;;;;;;;;-144.99;100.00;52619.31;5058383;28;19998;-78
2024/02/21 02:47:45;;;;;;;;;;;;;;;-144.99;100.00;52607.09;5054714;28;19928;-77
2024/02/21 02:50:12;;;;;;;;;;;;;;;-144.99;100.00;52582.63;5054099;28;19924;-77
2024/02/21 02:52:38;;;;;;;;;;;;;;;-144.99;100.00;52572.44;5057070;28;20023;-77
2024/02/21 02:55:05;;;;;;;;;;;;;;;-144.99;100.00;52598.94;5054942;28;20076;-76
2024/02/21 02:57:31;;;;;;;;;;;;;;;-144.99;100.00;52578.53;5046738;28;19925;-73
2024/02/21 02:59:59;;;;;;;;;;;;;;;-144.99;100.00;52651.94;5049957;28;20019;-75
2024/02/21 03:02:26;;;;;;;;;;;;;;;-144.99;100.00;52566.31;5053545;28;20303;-74
2024/02/21 03:04:53;;;;;;;;;;;;;;;-144.99;100.00;52607.09;5049882;28;20038;-74
2024/02/21 03:07:20;;;;;;;;;;;;;;;-144.99;100.00;52611.16;5058001;28;20435;-75
2024/02/21 03:09:47;;;;;;;;;;;;;;;-144.99;100.00;52611.16;5051617;28;19935;-74
2024/02/21 03:12:18;;;;;;;;;;;;;;;-144.99;100.00;52625.44;5047280;28;19972;-74
2024/02/21 03:14:45;;;;;;;;;;;;;;;-144.99;100.00;52594.84;5053541;28;19939;-71
2024/02/21 03:17:13;;;;;;;;;;;;;;;-144.99;100.00;52586.69;5050220;28;20035;-77
2024/02/21 03:19:39;;;;;;;;;;;;;;;-144.99;100.00;52613.19;5047014;28;19956;-78
2024/02/21 03:22:06;;;;;;;;;;;;;;;-144.99;100.00;52607.09;5053953;28;19939;-76
2024/02/21 03:24:32;;;;;;;;;;;;;;;-144.99;100.00;52576.50;5052805;28;19960;-76
2024/02/21 03:26:59;;;;;;;;;;;;;;;-144.99;100.00;52574.47;5051081;28;20014;-76
2024/02/21 03:29:26;;;;;;;;;;;;;;;-144.99;100.00;52582.63;5052667;28;20015;-79
2024/02/21 03:31:52;;;;;;;;;;;;;;;-144.99;100.00;52586.69;5054261;28;19962;-77
2024/02/21 03:34:20;;;;;;;;;;;;;;;-144.99;100.00;52598.94;5056417;28;20349;-78
2024/02/21 03:36:46;;;;;;;;;;;;;;;-144.99;100.00;52574.47;5068801;28;20031;-76
2024/02/21 03:39:13;;;;;;;;;;;;;;;-144.99;100.00;52603.00;5048770;28;19975;-75
2024/02/21 03:41:39;;;;;;;;;;;;;;;-144.99;100.00;52594.84;5047787;28;20024;-77
2024/02/21 03:44:05;;;;;;;;;;;;;;;-144.99;100.00;52590.78;5053396;28;20023;-79
2024/02/21 03:46:32;;;;;;;;;;;;;;;-144.99;100.00;52639.69;5058498;28;20471;-78
2024/02/21 03:49:00;;;;;;;;;;;;;;;-144.99;100.00;52621.34;5058968;28;19924;-76
2024/02/21 03:51:28;;;;;;;;;;;;;;;-144.99;100.00;52570.38;5051879;28;19929;-78
2024/02/21 03:53:54;;;;;;;;;;;;;;;-144.99;100.00;52570.38;5052953;28;19930;-78
2024/02/21 03:56:21;;;;;;;;;;;;;;;-144.99;100.00;52598.94;5052269;28;20054;-77
2024/02/21 03:58:47;;;;;;;;;;;;;;;-144.99;100.00;52600.97;5052003;28;20676;-77
2024/02/21 04:01:16;;;;;;;;;;;;;;;-144.99;100.00;52600.97;5053719;28;20019;-80
2024/02/21 04:03:43;;;;;;;;;;;;;;;-144.99;100.00;52598.94;5048979;28;20009;-78
2024/02/21 04:06:09;;;;;;;;;;;;;;;-144.99;100.00;52613.19;5052447;28;20006;-78
2024/02/21 04:08:37;;;;;;;;;;;;;;;-144.99;100.00;52590.78;5049310;28;19924;-81
2024/02/21 04:11:04;;;;;;;;;;;;;;;-144.99;100.00;52619.31;5053264;28;19996;-77
2024/02/21 04:13:30;;;;;;;;;;;;;;;-144.99;100.00;52570.38;5055254;28;20025;-78
2024/02/21 04:15:56;;;;;;;;;;;;;;;-144.99;100.00;52598.94;5047182;28;19969;-79
2024/02/21 04:18:23;;;;;;;;;;;;;;;-144.99;100.00;52623.38;5053772;28;20328;-79
2024/02/21 04:20:51;;;;;;;;;;;;;;;-144.99;100.00;52633.59;5053598;28;20353;-79
2024/02/21 04:23:17;;;;;;;;;;;;;;;-144.99;100.00;52596.88;5051442;28;19929;-78
2024/02/21 04:25:45;;;;;;;;;;;;;;;-144.99;100.00;52578.53;5046694;28;20002;-77
2024/02/21 04:28:12;;;;;;;;;;;;;;;-144.99;100.00;52615.25;5051489;28;19929;-78
2024/02/21 04:30:38;;;;;;;;;;;;;;;-144.99;100.00;52635.63;5052870;28;20015;-78
2024/02/21 04:33:04;;;;;;;;;;;;;;;-144.99;100.00;52582.63;5053750;28;20060;-78
2024/02/21 04:35:31;;;;;;;;;;;;;;;-144.99;100.00;52603.00;5042596;28;19972;-77
2024/02/21 04:37:57;;;;;;;;;;;;;;;-144.99;100.00;52560.19;5061154;28;19978;-76
2024/02/21 04:40:24;;;;;;;;;;;;;;;-144.99;100.00;52590.78;5057218;28;20409;-76
2024/02/21 04:42:52;;;;;;;;;;;;;;;-144.99;100.00;52611.16;5052462;28;19976;-81
2024/02/21 04:45:18;;;;;;;;;;;;;;;-144.99;100.00;52598.94;5049631;28;19928;-77
2024/02/21 04:47:45;;;;;;;;;;;;;;;-144.99;100.00;52598.94;5064272;28;20324;-77
2024/02/21 04:50:12;;;;;;;;;;;;;;;-144.99;100.00;52590.78;5058506;28;19932;-77
2024/02/21 04:52:39;;;;;;;;;;;;;;;-144.99;100.00;52576.50;5059595;28;20313;-79
2024/02/21 04:55:05;;;;;;;;;;;;;;;-144.99;100.00;52615.25;5054609;28;20051;-79
2024/02/21 04:57:32;;;;;;;;;;;;;;;-144.99;100.00;52586.69;5055663;28;20348;-77
2024/02/21 05:00:00;;;;;;;;;;;;;;;-144.99;100.00;52586.69;5062385;28;19925;-76
2024/02/21 05:02:26;;;;;;;;;;;;;;;-144.99;100.00;52582.63;5058136;28;20476;-76
2024/02/21 05:04:53;;;;;;;;;;;;;;;-144.99;100.00;52586.69;5059131;28;19950;-75
2024/02/21 05:07:19;;;;;;;;;;;;;;;-144.99;100.00;52598.94;5060852;28;20005;-76
2024/02/21 05:09:46;;;;;;;;;;;;;;;-144.99;100.00;52615.25;5058725;28;19940;-73
2024/02/21 05:12:12;;;;;;;;;;;;;;;-144.99;100.00;52594.84;5058858;28;20027;-78
2024/02/21 05:14:39;;;;;;;;;;;;;;;-144.99;100.00;52603.00;5065909;28;19924;-75
2024/02/21 05:17:07;;;;;;;;;;;;;;;-144.99;100.00;52578.53;5058813;28;19995;-75
2024/02/21 05:19:33;;;;;;;;;;;;;;;-144.99;100.00;52607.09;5066188;28;20011;-80
2024/02/21 05:21:59;;;;;;;;;;;;;;;-144.99;100.00;52615.25;5060250;28;19929;-80
2024/02/21 05:24:26;;;;;;;;;;;;;;;-144.99;100.00;52576.50;5065655;28;20003;-80
2024/02/21 05:26:52;;;;;;;;;;;;;;;-144.99;100.00;52623.38;5072043;28;19993;-78
2024/02/21 05:29:19;;;;;;;;;;;;;;;-144.99;100.00;52590.78;5057052;28;19924;-79
2024/02/21 05:31:56;;;;;;;;;;;;;;;-144.99;100.00;52615.25;5066411;28;20017;-80
2024/02/21 05:34:24;;;;;;;;;;;;;;;-144.99;100.00;52566.31;5065987;28;19925;-78
2024/02/21 05:36:50;;;;;;;;;;;;;;;-144.99;100.00;52598.94;5060296;28;19968;-79
2024/02/21 05:39:17;;;;;;;;;;;;;;;-144.99;100.00;52580.59;5075554;28;20028;-76
2024/02/21 05:41:43;;;;;;;;;;;;;;;-144.99;100.00;52598.94;5063212;28;19951;-80
2024/02/21 05:44:09;;;;;;;;;;;;;;;-144.99;100.00;52607.09;5058091;28;20007;-81
2024/02/21 05:46:36;;;;;;;;;;;;;;;-144.99;100.00;52611.16;5070463;28;20015;-82
2024/02/21 05:49:02;;;;;;;;;;;;;;;-144.99;100.00;52600.97;5071012;28;19936;-80
2024/02/21 05:51:33;;;;;;;;;;;;;;;-144.99;100.00;52613.19;5070804;28;19973;-79
2024/02/21 05:53:59;;;;;;;;;;;;;;;-144.99;100.00;52603.00;5062036;28;19933;-81
2024/02/21 05:56:26;;;;;;;;;;;;;;;-144.99;100.00;52603.00;5068292;28;20007;-80
2024/02/21 05:58:52;;;;;;;;;;;;;;;-144.99;100.00;52592.81;5060098;28;20361;-81
2024/02/21 06:01:20;;;;;;;;;;;;;;;-144.99;100.00;52611.16;5064549;28;19972;-77
2024/02/21 06:03:47;;;;;;;;;;;;;;;-144.99;100.00;52598.94;5050063;28;19928;-76
2024/02/21 06:06:14;;;;;;;;;;;;;;;-144.99;100.00;52574.47;5062523;28;20368;-79
2024/02/21 06:08:42;;;;;;;;;;;;;;;-144.99;100.00;52605.03;5057011;28;20246;-78
2024/02/21 06:11:08;;;;;;;;;;;;;;;-144.99;100.00;52586.69;5064388;28;19924;-76
2024/02/21 06:13:34;;;;;;;;;;;;;;;-144.99;100.00;52609.13;5064748;28;19931;-77
2024/02/21 06:16:01;;;;;;;;;;;;;;;-144.99;100.00;52603.00;5049666;28;20369;-76
2024/02/21 06:18:27;;;;;;;;;;;;;;;-144.99;100.00;52619.31;5057911;28;20041;-75
2024/02/21 06:20:53;;;;;;;;;;;;;;;-144.99;100.00;52590.78;5056598;28;19937;-78
2024/02/21 06:23:20;;;;;;;;;;;;;;;-144.99;100.00;52615.25;5057960;28;20008;-76
2024/02/21 06:25:47;;;;;;;;;;;;;;;-144.99;100.00;52598.94;5049489;28;20008;-75
2024/02/21 06:28:14;;;;;;;;;;;;;;;-144.99;100.00;52568.34;5062069;28;19932;-80
2024/02/21 06:30:40;;;;;;;;;;;;;;;-144.99;100.00;52603.00;4361992;28;10000734;-78
2024/02/21 06:33:07;;;;;;;;;;;;;;;-144.99;100.00;52615.25;5060576;28;20019;-79
2024/02/21 06:35:34;;;;;;;;;;;;;;;-144.99;100.00;52582.63;5061176;28;20031;-78
2024/02/21 06:38:00;;;;;;;;;;;;;;;-144.99;100.00;52574.47;5055637;28;19971;-80
2024/02/21 06:40:27;;;;;;;;;;;;;;;-144.99;100.00;52570.38;5056234;28;20028;-79
2024/02/21 06:42:54;;;;;;;;;;;;;;;-144.99;100.00;52598.94;5063024;28;19925;-77
2024/02/21 06:45:21;;;;;;;;;;;;;;;-144.99;100.00;52603.00;5066888;28;20030;-79
2024/02/21 06:47:47;;;;;;;;;;;;;;;-144.99;100.00;52574.47;5051246;28;19929;-81
2024/02/21 06:50:14;;;;;;;;;;;;;;;-144.99;100.00;52603.00;5062724;28;20015;-79
2024/02/21 06:52:40;;;;;;;;;;;;;;;-144.99;100.00;52594.84;5067147;28;20798;-79
2024/02/21 06:55:07;;;;;;;;;;;;;;;-144.99;100.00;52603.00;5052138;28;19931;-77
2024/02/21 06:57:33;;;;;;;;;;;;;;;-144.99;100.00;52598.94;5048515;28;20019;-77
2024/02/21 07:00:01;;;;;;;;;;;;;;;-144.99;100.00;52562.25;5052514;28;20725;-79
2024/02/21 07:02:28;;;;;;;;;;;;;;;-144.99;100.00;52574.47;5053437;28;20048;-78
2024/02/21 07:04:54;;;;;;;;;;;;;;;-144.99;100.00;52598.94;5053444;28;20412;-79
2024/02/21 07:07:21;;;;;;;;;;;;;;;-144.99;100.00;52594.84;5067180;28;20011;-76
2024/02/21 07:09:48;;;;;;;;;;;;;;;-144.99;100.00;52562.25;5061411;28;19928;-77
2024/02/21 07:12:15;;;;;;;;;;;;;;;-144.99;100.00;52582.63;5050008;28;19975;-77
2024/02/21 07:14:41;;;;;;;;;;;;;;;-144.99;100.00;52611.16;5061661;28;20023;-75
2024/02/21 07:17:09;;;;;;;;;;;;;;;-144.99;100.00;52611.16;5056167;28;19970;-77
2024/02/21 07:19:36;;;;;;;;;;;;;;;-144.99;100.00;52590.78;5051677;28;19972;-78
2024/02/21 07:22:02;;;;;;;;;;;;;;;-144.99;100.00;52582.63;5061964;28;20047;-77
2024/02/21 07:24:29;;;;;;;;;;;;;;;-144.99;100.00;52609.13;5064643;28;19993;-77
2024/02/21 07:26:56;;;;;;;;;;;;;;;-144.99;100.00;52564.28;5065216;28;19986;-77
2024/02/21 07:29:22;;;;;;;;;;;;;;;-144.99;100.00;52607.09;5054538;28;19981;-78
2024/02/21 07:31:51;;;;;;;;;;;;;;;-144.99;100.00;52566.31;5054409;28;19976;-83
2024/02/21 07:34:18;;;;;;;;;;;;;;;-144.99;100.00;52562.25;5068858;28;19937;-80
2024/02/21 07:36:45;;;;;;;;;;;;;;;-144.99;100.00;52574.47;5062102;28;19925;-78
2024/02/21 07:39:11;;;;;;;;;;;;;;;-144.99;100.00;52584.66;5054994;28;19928;-79
2024/02/21 07:41:39;;;;;;;;;;;;;;;-144.99;100.00;52611.16;5052873;28;20529;-76
2024/02/21 07:44:05;;;;;;;;;;;;;;;-144.99;100.00;52582.63;5061320;28;19928;-77
2024/02/21 07:46:32;;;;;;;;;;;;;;;-144.99;100.00;52582.63;5061761;28;20047;-79
2024/02/21 07:48:58;;;;;;;;;;;;;;;-144.99;100.00;52615.25;5061263;28;19961;-78
2024/02/21 07:51:29;;;;;;;;;;;;;;;-144.99;100.00;52560.19;5055451;28;19928;-78
2024/02/21 07:53:56;;;;;;;;;;;;;;;-144.99;100.00;52656.00;5064338;28;20262;-76
2024/02/21 07:56:22;;;;;;;;;;;;;;;-144.99;100.00;52566.31;5067347;28;19986;-75
2024/02/21 07:58:49;;;;;;;;;;;;;;;-144.99;100.00;52586.69;4716868;28;10000582;-79
2024/02/21 08:01:19;;;;;;;;;;;;;;;-144.99;100.00;52574.47;5067413;28;20443;-79
2024/02/21 08:03:45;;;;;;;;;;;;;;;-144.99;100.00;52617.28;5058459;28;20012;-79
2024/02/21 08:06:12;;;;;;;;;;;;;;;-144.99;100.00;52615.25;5064065;28;19936;-81
2024/02/21 08:08:40;;;;;;;;;;;;;;;-144.99;100.00;52574.47;5062897;28;19960;-80
2024/02/21 08:11:07;;;;;;;;;;;;;;;-144.99;100.00;52603.00;5050306;28;19998;-81
2024/02/21 08:13:33;;;;;;;;;;;;;;;-144.99;100.00;52537.78;5051689;28;20085;-80
2024/02/21 08:16:00;;;;;;;;;;;;;;;-144.99;100.00;52590.78;5065280;28;19996;-79
2024/02/21 08:18:26;;;;;;;;;;;;;;;-144.99;100.00;52586.69;5067265;28;19997;-76
2024/02/21 08:20:53;;;;;;;;;;;;;;;-144.99;100.00;52586.69;5063494;28;20001;-77
2024/02/21 08:23:19;;;;;;;;;;;;;;;-144.99;100.00;52603.00;5051100;28;20469;-77
2024/02/21 08:25:47;;;;;;;;;;;;;;;-144.99;100.00;52584.66;5053415;28;20051;-76
2024/02/21 08:28:14;;;;;;;;;;;;;;;-144.99;100.00;52574.47;5061076;28;19928;-79
2024/02/21 08:30:44;;;;;;;;;;;;;;;-144.99;100.00;52631.53;5059744;28;20655;-80
2024/02/21 08:33:10;;;;;;;;;;;;;;;-144.99;100.00;52558.16;5060614;28;19933;-79
2024/02/21 08:35:37;;;;;;;;;;;;;;;-144.99;100.00;52588.75;5057891;28;19947;-74
2024/02/21 08:38:03;;;;;;;;;;;;;;;-144.99;100.00;52590.78;5051875;28;19960;-75
2024/02/21 08:40:30;;;;;;;;;;;;;;;-144.99;100.00;52586.69;5054645;28;20032;-76
2024/02/21 08:42:57;;;;;;;;;;;;;;;-144.99;100.00;52592.81;5070138;28;19929;-79
2024/02/21 08:45:24;;;;;;;;;;;;;;;-144.99;100.00;52562.25;5050546;28;19944;-78
2024/02/21 08:47:50;;;;;;;;;;;;;;;-144.99;100.00;52574.47;5067427;28;20007;-79
2024/02/21 08:50:17;;;;;;;;;;;;;;;-144.99;100.00;52586.69;5051564;28;20649;-76
2024/02/21 08:52:43;;;;;;;;;;;;;;;-144.99;100.00;52611.16;5054349;28;20036;-75
2024/02/21 08:55:10;;;;;;;;;;;;;;;-144.99;100.00;52600.97;5056893;28;20774;-77
2024/02/21 08:57:37;;;;;;;;;;;;;;;-144.99;100.00;52566.31;5047842;28;19929;-76
2024/02/21 09:00:09;;;;;;;;;;;;;;;-144.99;100.00;52578.53;5061414;28;20388;-75
2024/02/21 09:02:36;;;;;;;;;;;;;;;-144.99;100.00;52582.63;5056055;28;19932;-78
2024/02/21 09:05:02;;;;;;;;;;;;;;;-144.99;100.00;52623.38;5057132;28;19972;-75
2024/02/21 09:07:29;;;;;;;;;;;;;;;-144.99;100.00;52598.94;5045375;28;20047;-75
2024/02/21 09:09:55;;;;;;;;;;;;;;;-144.99;100.00;52570.38;5060620;28;20027;-75
2024/02/21 09:12:22;;;;;;;;;;;;;;;-144.99;100.00;52564.28;5056240;28;19935;-76
2024/02/21 09:14:50;;;;;;;;;;;;;;;-144.99;100.00;52598.94;5066959;28;20265;-77
2024/02/21 09:17:18;;;;;;;;;;;;;;;-144.99;100.00;52607.09;5058023;28;20016;-78
2024/02/21 09:19:44;;;;;;;;;;;;;;;-144.99;100.00;52582.63;5052719;28;20019;-76
2024/02/21 09:22:11;;;;;;;;;;;;;;;-144.99;100.00;52582.63;5060139;28;19929;-75
2024/02/21 09:24:37;;;;;;;;;;;;;;;-144.99;100.00;52594.84;5056087;28;20027;-76
2024/02/21 09:27:04;;;;;;;;;;;;;;;-144.99;100.00;52578.53;5058108;28;20103;-77
2024/02/21 09:29:30;;;;;;;;;;;;;;;-144.99;100.00;52570.38;5054841;28;19943;-76
2024/02/21 09:31:58;;;;;;;;;;;;;;;-144.99;100.00;52611.16;5058546;28;19931;-79
2024/02/21 09:34:26;;;;;;;;;;;;;;;-144.99;100.00;52543.91;5068473;28;19933;-79
2024/02/21 09:36:53;;;;;;;;;;;;;;;-144.99;100.00;52592.81;5061912;28;19928;-80
2024/02/21 09:39:20;;;;;;;;;;;;;;;-144.99;100.00;52582.63;5053000;28;19928;-80
2024/02/21 09:41:48;;;;;;;;;;;;;;;-144.99;100.00;52578.53;5057147;28;19960;-78
2024/02/21 09:44:15;;;;;;;;;;;;;;;-144.99;100.00;52615.25;5063296;28;19928;-78
2024/02/21 09:46:45;;;;;;;;;;;;;;;-144.99;100.00;52570.38;5062474;28;20038;-76
2024/02/21 09:49:18;;;;;;;;;;;;;;;-144.99;100.00;52598.94;5056525;28;20515;-78
2024/02/21 09:51:48;;;;;;;;;;;;;;;-144.99;100.00;52600.97;5060018;28;20249;-76
2024/02/21 09:54:14;;;;;;;;;;;;;;;-144.99;100.00;52590.78;5062027;28;20014;-80
2024/02/21 09:56:41;;;;;;;;;;;;;;;-144.99;100.00;52554.09;5066577;28;20737;-79
2024/02/21 09:59:08;;;;;;;;;;;;;;;-144.99;100.00;52578.53;5061200;28;19925;-78
2024/02/21 10:01:34;;;;;;;;;;;;;;;-144.99;100.00;52560.19;5059037;28;20027;-78
2024/02/21 10:04:02;;;;;;;;;;;;;;;-144.99;100.00;52590.78;5063311;28;19939;-79
2024/02/21 10:06:29;;;;;;;;;;;;;;;-144.99;100.00;52590.78;5064904;28;19979;-77
2024/02/21 10:08:57;;;;;;;;;;;;;;;-144.99;100.00;52584.66;5061903;28;19935;-77
2024/02/21 10:11:24;;;;;;;;;;;;;;;-144.99;100.00;52574.47;5058641;28;20548;-76
2024/02/21 10:13:50;;;;;;;;;;;;;;;-144.99;100.00;52582.63;5061583;28;19929;-77
2024/02/21 10:16:17;;;;;;;;;;;;;;;-144.99;100.00;52545.94;5062379;28;19986;-75
2024/02/21 10:18:43;;;;;;;;;;;;;;;-144.99;100.00;52566.31;5055933;28;19928;-76
2024/02/21 10:21:10;;;;;;;;;;;;;;;-144.99;100.00;52552.03;5055571;28;19933;-76
2024/02/21 10:23:43;;;;;;;;;;;;;;;-144.99;100.00;52566.31;5062420;28;19928;-78
2024/02/21 10:26:11;;;;;;;;;;;;;;;-144.99;100.00;52558.16;5061355;28;20015;-75
2024/02/21 10:28:41;;;;;;;;;;;;;;;-144.99;100.00;52607.09;5060852;28;19930;-77
2024/02/21 10:31:08;;;;;;;;;;;;;;;-144.99;100.00;52570.38;5067707;28;19929;-77
2024/02/21 10:33:34;;;;;;;;;;;;;;;-144.99;100.00;52623.38;5060163;28;20326;-78
2024/02/21 10:36:08;;;;;;;;;;;;;;;-144.99;100.00;52582.63;5063186;28;19929;-75
2024/02/21 10:38:35;;;;;;;;;;;;;;;-144.99;100.00;52611.16;5068386;28;20408;-78
2024/02/21 10:41:03;;;;;;;;;;;;;;;-144.99;100.00;52576.50;5071287;28;19968;-78
2024/02/21 10:43:35;;;;;;;;;;;;;;;-144.99;100.00;52578.53;5074577;28;20013;-77
2024/02/21 10:46:04;;;;;;;;;;;;;;;-144.99;100.00;52611.16;5068878;28;19928;-75
2024/02/21 10:48:34;;;;;;;;;;;;;;;-144.99;100.00;52603.00;5074427;28;19948;-77
2024/02/21 10:51:04;;;;;;;;;;;;;;;-144.99;100.00;52550.00;5079937;28;20452;-76
2024/02/21 10:53:36;;;;;;;;;;;;;;;-144.99;100.00;52598.94;5070815;28;20104;-74
2024/02/21 10:56:08;;;;;;;;;;;;;;;-144.99;100.00;52586.69;5063650;28;19928;-75
2024/02/21 10:58:36;;;;;;;;;;;;;;;-144.99;100.00;52580.59;5069082;28;20497;-78
2024/02/21 11:01:03;;;;;;;;;;;;;;;-144.99;100.00;52545.94;5063988;28;19928;-77
2024/02/21 11:03:30;;;;;;;;;;;;;;;-144.99;100.00;52594.84;5065593;28;19972;-77
2024/02/21 11:05:57;;;;;;;;;;;;;;;-144.99;100.00;52576.50;5055315;28;20015;-78
2024/02/21 11:08:24;;;;;;;;;;;;;;;-144.99;100.00;52578.53;5065152;28;20086;-77
2024/02/21 11:10:51;;;;;;;;;;;;;;;-144.99;100.00;52533.69;5068376;28;20276;-76
2024/02/21 11:13:17;;;;;;;;;;;;;;;-144.99;100.00;52570.38;5067396;28;20016;-81
2024/02/21 11:15:47;;;;;;;;;;;;;;;-144.99;100.00;52558.16;5062345;28;20740;-79
2024/02/21 11:18:23;;;;;;;;;;;;;;;-144.99;100.00;52582.63;5062036;28;19936;-78
2024/02/21 11:20:51;;;;;;;;;;;;;;;-144.99;100.00;52582.63;5084575;28;20372;-77
2024/02/21 11:23:24;;;;;;;;;;;;;;;-144.99;100.00;52582.63;5061204;28;19935;-78
2024/02/21 11:25:51;;;;;;;;;;;;;;;-144.99;100.00;52619.31;5062966;28;20054;-78
2024/02/21 11:28:26;;;;;;;;;;;;;;;-144.99;100.00;52560.19;5058740;28;20015;-79
2024/02/21 11:30:54;;;;;;;;;;;;;;;-144.99;100.00;52566.31;5068642;28;20009;-78
2024/02/21 11:33:23;;;;;;;;;;;;;;;-144.99;100.00;52582.63;5084794;28;19995;-76
2024/02/21 11:35:53;;;;;;;;;;;;;;;-144.99;100.00;52592.81;5079740;28;20284;-76
2024/02/21 11:38:22;;;;;;;;;;;;;;;-144.99;100.00;52603.00;5067231;28;19929;-77
2024/02/21 11:40:49;;;;;;;;;;;;;;;-144.99;100.00;52578.53;5059347;28;19928;-76
2024/02/21 11:43:16;;;;;;;;;;;;;;;-144.99;100.00;52611.16;5067900;28;20333;-78
2024/02/21 11:45:42;;;;;;;;;;;;;;;-144.99;100.00;52615.25;5067475;28;20035;-76
2024/02/21 11:48:10;;;;;;;;;;;;;;;-144.99;100.00;52578.53;5066578;28;19969;-79
2024/02/21 11:50:36;;;;;;;;;;;;;;;-144.99;100.00;52562.25;5052440;28;19968;-75
2024/02/21 11:53:03;;;;;;;;;;;;;;;-144.99;100.00;52566.31;5062310;28;20543;-73
2024/02/21 11:55:30;;;;;;;;;;;;;;;-144.99;100.00;52615.25;5061953;28;19928;-80
2024/02/21 11:57:56;;;;;;;;;;;;;;;-144.99;100.00;52594.84;5044834;28;19932;-76
2024/02/21 12:00:24;;;;;;;;;;;;;;;-144.99;100.00;52570.38;5051245;28;19960;-79
2024/02/21 12:02:51;;;;;;;;;;;;;;;-144.99;100.00;52627.47;4712296;28;10000379;-76
2024/02/21 12:05:19;;;;;;;;;;;;;;;-144.99;100.00;52578.53;5055056;28;20061;-79
2024/02/21 12:07:46;;;;;;;;;;;;;;;-144.99;100.00;52615.25;5053355;28;19932;-77
2024/02/21 12:10:13;;;;;;;;;;;;;;;-144.99;100.00;52607.09;5057462;28;19934;-76
2024/02/21 12:12:39;;;;;;;;;;;;;;;-144.99;100.00;52605.03;5057247;28;20657;-75
2024/02/21 12:15:06;;;;;;;;;;;;;;;-144.99;100.00;52568.34;5060944;28;20029;-74
2024/02/21 12:17:33;;;;;;;;;;;;;;;-144.99;100.00;52560.19;5056048;28;20004;-77